Friday, February 27, 2015, 7:27 PM EST

KRIC, Richmond International Airport

Location: Sandston, VA, United States Lat: 37.517
Local Time: 7:27 PM EST ( 0:27 GMT) Lon: -77.317
Time Zone: US/Eastern Elev: 167 ft

Show me the last for .
Show Decoded

2015-02-27 18:54 METAR KRIC 272354Z 06004KT 10SM FEW060 00/M08 A3051 RMK AO2 SLP338 4/001
                 T00001078 10028 20000 53021 =
2015-02-27 17:54 METAR KRIC 272254Z 03006KT 10SM FEW060 01/M08 A3048 RMK AO2 SLP327 T00111078 =
2015-02-27 16:54 METAR KRIC 272154Z 04008KT 10SM FEW060 02/M06 A3045 RMK AO2 SLP318 T00221061 =
2015-02-27 15:54 METAR KRIC 272054Z 04006KT 10SM SCT060 BKN250 03/M06 A3044 =
2015-02-27 14:54 METAR KRIC 271954Z 07005KT 10SM FEW027 SCT055 BKN250 02/M06 A3043 RMK AO2 SLP311
                 T00171056 =
2015-02-27 14:11 METAR KRIC 271911Z 02009KT 10SM SCT024 BKN035 OVC250 02/M04 A3042 =
2015-02-27 13:54 METAR KRIC 271854Z 04006KT 10SM BKN020 BKN033 OVC250 02/M04 A3042 =
2015-02-27 12:54 METAR KRIC 271754Z 02007KT 9SM OVC018 01/M04 A3042 RMK AO2 SLP307 4/002 933003
                 T00111039 10022 21033 51018 =
2015-02-27 12:05 METAR KRIC 271705Z 04010KT 8SM OVC016 01/M04 A3041 RMK AO2 =
2015-02-27 11:54 METAR KRIC 271654Z 03008KT 8SM OVC014 01/M04 A3041 RMK AO2 SLP304 T00111039 =
2015-02-27 10:54 METAR KRIC 271554Z 02009KT 7SM OVC012 01/M03 A3039 RMK AO2 SLP297 T00111028 =
2015-02-27 09:54 METAR KRIC 271454Z 36006KT 7SM OVC014 02/M02 A3036 =
2015-02-27 09:04 METAR KRIC 271404Z 34008KT 5SM HZ BKN014 BKN055 OVC300 01/M03 A3035 RMK AO2 =
2015-02-27 08:54 METAR KRIC 271354Z 31007KT 3SM HZ FEW014 SCT055 BKN300 01/M02 A3035 RMK AO2
                 SLP283 T00061022 =
2015-02-27 07:54 METAR KRIC 271254Z 00000KT 2SM R34/6000VP6000FT BR FEW055 SCT300 M01/M03 A3032
                 RMK AO2 SLP272 T10111028 =
2015-02-27 06:54 METAR KRIC 271154Z 16004KT 2SM R34/3500VP6000FT BR FEW046 SCT300 M01/M03 A3028
                 RMK AO2 SLP260 4/002 70002 T10111033 11006 21022 53024 =
2015-02-27 05:54 METAR KRIC 271054Z 00000KT 4SM BR FEW031 OVC045 M01/M02 A3024 RMK AO2 SLP248
                 T10111022 =
2015-02-27 04:54 METAR KRIC 270954Z 00000KT 4SM BR OVC036 M01/M02 A3023 RMK AO2 SLP243 T10061022
                 =
2015-02-27 03:54 METAR KRIC 270854Z 00000KT 4SM BR OVC038 M01/M03 A3021 RMK AO2 SLP235 T10111028
                 53010 =
2015-02-27 02:54 METAR KRIC 270754Z 00000KT 6SM BR OVC039 M01/M02 A3019 RMK AO2 SLP231 T10111022
                 =
2015-02-27 01:54 METAR KRIC 270654Z 00000KT 5SM BR OVC043 M02/M03 A3019 RMK AO2 SLP229 T10171028
                 =
2015-02-27 00:54 METAR KRIC 270554Z 00000KT 5SM BR OVC049 M02/M04 A3018 RMK AO2 SLP225 4/002
                 T10221039 10011 21044 53019 =
2015-02-27 00:09 METAR KRIC 270509Z 00000KT 5SM R34/6000VP6000FT BR FEW003 OVC050 M03/M04 A3016
                 RMK AO2 =
2015-02-26 23:54 METAR KRIC 270454Z 00000KT 1SM R34/2200VP6000FT BR FEW001 OVC050 M04/M05 A3016
                 RMK AO2 SLP218 T10391050 400281044 =
2015-02-26 23:45 METAR KRIC 270445Z 00000KT 1SM R34/1600VP6000FT BR OVC050 M04/M05 A3016 RMK AO2
                 =
2015-02-26 23:34 METAR KRIC 270434Z 00000KT 1SM R34/1200V2000FT BR BKN050 M03/M04 A3015 RMK AO2 =
2015-02-26 22:54 METAR KRIC 270354Z 00000KT 1SM R34/1400V6000FT BR CLR M03/M05 A3013 RMK AO2
                 SLP211 T10331050 =
2015-02-26 22:49 METAR KRIC 270349Z 00000KT 1SM R34/1600V2200FT BR CLR M03/M05 A3013 RMK AO2 =
2015-02-26 21:54 METAR KRIC 270254Z 00000KT 2SM R34/1400VP6000FT BR CLR M03/M04 A3012 RMK AO2
                 SLP206 T10281044 51020 =
2015-02-26 20:54 METAR KRIC 270154Z 00000KT 4SM R34/2000VP6000FT BR CLR M02/M03 A3010 RMK AO2
                 SLP200 T10171033 =
2015-02-26 19:54 METAR KRIC 270054Z 00000KT 8SM FEW030 M01/M03 A3009 =

Support USWX by starting your Amazon purchase here.